sensor_id;sensor_type;location;lat;lon;timestamp;temperature;humidity
85531;SHT35;75970;52.122;5.406;2024-02-04T00:00:44;19.96;50.70
85531;SHT35;75970;52.122;5.406;2024-02-04T00:03:15;19.95;50.73
85531;SHT35;75970;52.122;5.406;2024-02-04T00:05:46;19.93;50.72
85531;SHT35;75970;52.122;5.406;2024-02-04T00:08:16;19.92;50.74
85531;SHT35;75970;52.122;5.406;2024-02-04T00:10:46;19.91;50.77
85531;SHT35;75970;52.122;5.406;2024-02-04T00:13:16;19.89;50.78
85531;SHT35;75970;52.122;5.406;2024-02-04T00:15:47;19.88;50.80
85531;SHT35;75970;52.122;5.406;2024-02-04T00:18:17;19.85;50.81
85531;SHT35;75970;52.122;5.406;2024-02-04T00:20:47;19.84;50.82
85531;SHT35;75970;52.122;5.406;2024-02-04T00:23:17;19.82;50.83
85531;SHT35;75970;52.122;5.406;2024-02-04T00:25:48;19.81;50.84
85531;SHT35;75970;52.122;5.406;2024-02-04T00:28:18;19.80;50.89
85531;SHT35;75970;52.122;5.406;2024-02-04T00:30:49;19.78;50.90
85531;SHT35;75970;52.122;5.406;2024-02-04T00:33:22;19.76;50.92
85531;SHT35;75970;52.122;5.406;2024-02-04T00:35:52;19.75;50.92
85531;SHT35;75970;52.122;5.406;2024-02-04T00:38:23;19.74;50.97
85531;SHT35;75970;52.122;5.406;2024-02-04T00:40:53;19.72;50.99
85531;SHT35;75970;52.122;5.406;2024-02-04T00:43:23;19.71;51.00
85531;SHT35;75970;52.122;5.406;2024-02-04T00:45:53;19.70;51.03
85531;SHT35;75970;52.122;5.406;2024-02-04T00:48:25;19.69;51.02
85531;SHT35;75970;52.122;5.406;2024-02-04T00:50:56;19.68;51.01
85531;SHT35;75970;52.122;5.406;2024-02-04T00:53:26;19.67;51.06
85531;SHT35;75970;52.122;5.406;2024-02-04T00:56:05;19.66;51.05
85531;SHT35;75970;52.122;5.406;2024-02-04T00:58:36;19.65;51.09
85531;SHT35;75970;52.122;5.406;2024-02-04T01:01:06;19.63;51.11
85531;SHT35;75970;52.122;5.406;2024-02-04T01:03:37;19.63;51.09
85531;SHT35;75970;52.122;5.406;2024-02-04T01:06:07;19.61;51.11
85531;SHT35;75970;52.122;5.406;2024-02-04T01:08:37;19.60;51.10
85531;SHT35;75970;52.122;5.406;2024-02-04T01:11:08;19.59;51.16
85531;SHT35;75970;52.122;5.406;2024-02-04T01:13:38;19.58;51.15
85531;SHT35;75970;52.122;5.406;2024-02-04T01:16:08;19.57;51.14
85531;SHT35;75970;52.122;5.406;2024-02-04T01:18:38;19.56;51.13
85531;SHT35;75970;52.122;5.406;2024-02-04T01:21:09;19.55;51.15
85531;SHT35;75970;52.122;5.406;2024-02-04T01:23:39;19.54;51.17
85531;SHT35;75970;52.122;5.406;2024-02-04T01:26:09;19.53;51.19
85531;SHT35;75970;52.122;5.406;2024-02-04T01:28:39;19.51;51.20
85531;SHT35;75970;52.122;5.406;2024-02-04T01:31:09;19.51;51.20
85531;SHT35;75970;52.122;5.406;2024-02-04T01:33:39;19.49;51.24
85531;SHT35;75970;52.122;5.406;2024-02-04T01:36:10;19.49;51.27
85531;SHT35;75970;52.122;5.406;2024-02-04T01:38:40;19.48;51.26
85531;SHT35;75970;52.122;5.406;2024-02-04T01:41:10;19.46;51.24
85531;SHT35;75970;52.122;5.406;2024-02-04T01:43:40;19.45;51.27
85531;SHT35;75970;52.122;5.406;2024-02-04T01:46:11;19.45;51.27
85531;SHT35;75970;52.122;5.406;2024-02-04T01:48:42;19.43;51.29
85531;SHT35;75970;52.122;5.406;2024-02-04T01:51:14;19.42;51.35
85531;SHT35;75970;52.122;5.406;2024-02-04T01:53:46;19.41;51.35
85531;SHT35;75970;52.122;5.406;2024-02-04T01:56:17;19.41;51.35
85531;SHT35;75970;52.122;5.406;2024-02-04T01:58:48;19.40;51.36
85531;SHT35;75970;52.122;5.406;2024-02-04T02:01:19;19.39;51.34
85531;SHT35;75970;52.122;5.406;2024-02-04T02:03:50;19.38;51.40
85531;SHT35;75970;52.122;5.406;2024-02-04T02:06:21;19.37;51.42
85531;SHT35;75970;52.122;5.406;2024-02-04T02:08:55;19.37;51.40
85531;SHT35;75970;52.122;5.406;2024-02-04T02:11:41;19.35;51.39
85531;SHT35;75970;52.122;5.406;2024-02-04T02:14:23;19.34;51.38
85531;SHT35;75970;52.122;5.406;2024-02-04T02:16:59;19.33;51.42
85531;SHT35;75970;52.122;5.406;2024-02-04T02:19:52;19.32;51.46
85531;SHT35;75970;52.122;5.406;2024-02-04T02:25:07;19.30;51.43
85531;SHT35;75970;52.122;5.406;2024-02-04T02:27:59;19.30;51.45
85531;SHT35;75970;52.122;5.406;2024-02-04T02:30:29;19.28;51.47
85531;SHT35;75970;52.122;5.406;2024-02-04T02:33:00;19.27;51.49
85531;SHT35;75970;52.122;5.406;2024-02-04T02:35:30;19.26;51.46
85531;SHT35;75970;52.122;5.406;2024-02-04T02:40:45;19.24;51.54
85531;SHT35;75970;52.122;5.406;2024-02-04T02:43:16;19.23;51.53
85531;SHT35;75970;52.122;5.406;2024-02-04T02:45:46;19.22;51.56
85531;SHT35;75970;52.122;5.406;2024-02-04T02:48:18;19.21;51.58
85531;SHT35;75970;52.122;5.406;2024-02-04T02:50:49;19.20;51.61
85531;SHT35;75970;52.122;5.406;2024-02-04T02:53:19;19.19;51.59
85531;SHT35;75970;52.122;5.406;2024-02-04T02:55:49;19.18;51.60
85531;SHT35;75970;52.122;5.406;2024-02-04T02:58:19;19.18;51.61
85531;SHT35;75970;52.122;5.406;2024-02-04T03:00:49;19.16;51.59
85531;SHT35;75970;52.122;5.406;2024-02-04T03:03:20;19.15;51.63
85531;SHT35;75970;52.122;5.406;2024-02-04T03:05:50;19.14;51.63
85531;SHT35;75970;52.122;5.406;2024-02-04T03:08:20;19.13;51.65
85531;SHT35;75970;52.122;5.406;2024-02-04T03:10:51;19.12;51.68
85531;SHT35;75970;52.122;5.406;2024-02-04T03:13:21;19.11;51.69
85531;SHT35;75970;52.122;5.406;2024-02-04T03:15:51;19.10;51.71
85531;SHT35;75970;52.122;5.406;2024-02-04T03:18:21;19.09;51.70
85531;SHT35;75970;52.122;5.406;2024-02-04T03:20:51;19.08;51.72
85531;SHT35;75970;52.122;5.406;2024-02-04T03:23:22;19.07;51.75
85531;SHT35;75970;52.122;5.406;2024-02-04T03:25:52;19.06;51.76
85531;SHT35;75970;52.122;5.406;2024-02-04T03:28:22;19.05;51.77
85531;SHT35;75970;52.122;5.406;2024-02-04T03:30:52;19.05;51.80
85531;SHT35;75970;52.122;5.406;2024-02-04T03:33:23;19.04;51.76
85531;SHT35;75970;52.122;5.406;2024-02-04T03:35:53;19.03;51.83
85531;SHT35;75970;52.122;5.406;2024-02-04T03:38:23;19.02;51.78
85531;SHT35;75970;52.122;5.406;2024-02-04T03:40:54;19.01;51.81
85531;SHT35;75970;52.122;5.406;2024-02-04T03:43:24;19.01;51.85
85531;SHT35;75970;52.122;5.406;2024-02-04T03:45:54;19.00;51.88
85531;SHT35;75970;52.122;5.406;2024-02-04T03:48:25;18.99;51.87
85531;SHT35;75970;52.122;5.406;2024-02-04T03:50:55;18.99;51.86
85531;SHT35;75970;52.122;5.406;2024-02-04T03:53:25;18.99;51.88
85531;SHT35;75970;52.122;5.406;2024-02-04T03:55:55;18.98;51.88
85531;SHT35;75970;52.122;5.406;2024-02-04T03:58:26;18.97;51.85
85531;SHT35;75970;52.122;5.406;2024-02-04T04:00:59;18.96;51.89
85531;SHT35;75970;52.122;5.406;2024-02-04T04:03:29;18.95;51.90
85531;SHT35;75970;52.122;5.406;2024-02-04T04:05:59;18.95;51.92
85531;SHT35;75970;52.122;5.406;2024-02-04T04:08:29;18.94;51.93
85531;SHT35;75970;52.122;5.406;2024-02-04T04:10:59;18.93;51.93
85531;SHT35;75970;52.122;5.406;2024-02-04T04:13:30;18.93;51.92
85531;SHT35;75970;52.122;5.406;2024-02-04T04:16:06;18.92;51.94
85531;SHT35;75970;52.122;5.406;2024-02-04T04:18:36;18.92;51.94
85531;SHT35;75970;52.122;5.406;2024-02-04T04:21:06;18.91;51.96
85531;SHT35;75970;52.122;5.406;2024-02-04T04:23:37;18.90;51.94
85531;SHT35;75970;52.122;5.406;2024-02-04T04:26:07;18.89;51.97
85531;SHT35;75970;52.122;5.406;2024-02-04T04:28:37;18.88;51.96
85531;SHT35;75970;52.122;5.406;2024-02-04T04:31:07;18.88;51.98
85531;SHT35;75970;52.122;5.406;2024-02-04T04:33:38;18.87;51.98
85531;SHT35;75970;52.122;5.406;2024-02-04T04:36:08;18.86;51.98
85531;SHT35;75970;52.122;5.406;2024-02-04T04:38:38;18.85;51.97
85531;SHT35;75970;52.122;5.406;2024-02-04T04:41:09;18.85;52.00
85531;SHT35;75970;52.122;5.406;2024-02-04T04:43:39;18.84;51.99
85531;SHT35;75970;52.122;5.406;2024-02-04T04:46:09;18.83;51.99
85531;SHT35;75970;52.122;5.406;2024-02-04T04:48:39;18.82;52.03
85531;SHT35;75970;52.122;5.406;2024-02-04T04:51:11;18.82;52.01
85531;SHT35;75970;52.122;5.406;2024-02-04T04:53:42;18.81;52.03
85531;SHT35;75970;52.122;5.406;2024-02-04T04:56:12;18.80;52.05
85531;SHT35;75970;52.122;5.406;2024-02-04T04:58:42;18.79;52.03
85531;SHT35;75970;52.122;5.406;2024-02-04T05:01:12;18.79;52.06
85531;SHT35;75970;52.122;5.406;2024-02-04T05:03:43;18.78;52.07
85531;SHT35;75970;52.122;5.406;2024-02-04T05:06:14;18.77;52.06
85531;SHT35;75970;52.122;5.406;2024-02-04T05:08:44;18.76;52.05
85531;SHT35;75970;52.122;5.406;2024-02-04T05:11:15;18.76;52.09
85531;SHT35;75970;52.122;5.406;2024-02-04T05:13:45;18.76;52.11
85531;SHT35;75970;52.122;5.406;2024-02-04T05:16:15;18.75;52.12
85531;SHT35;75970;52.122;5.406;2024-02-04T05:18:45;18.74;52.10
85531;SHT35;75970;52.122;5.406;2024-02-04T05:21:16;18.74;52.13
85531;SHT35;75970;52.122;5.406;2024-02-04T05:23:46;18.74;52.14
85531;SHT35;75970;52.122;5.406;2024-02-04T05:26:18;18.73;52.12
85531;SHT35;75970;52.122;5.406;2024-02-04T05:28:48;18.73;52.15
85531;SHT35;75970;52.122;5.406;2024-02-04T05:31:18;18.72;52.15
85531;SHT35;75970;52.122;5.406;2024-02-04T05:33:48;18.71;52.14
85531;SHT35;75970;52.122;5.406;2024-02-04T05:36:19;18.71;52.15
85531;SHT35;75970;52.122;5.406;2024-02-04T05:38:49;18.70;52.15
85531;SHT35;75970;52.122;5.406;2024-02-04T05:41:19;18.70;52.16
85531;SHT35;75970;52.122;5.406;2024-02-04T05:43:49;18.70;52.17
85531;SHT35;75970;52.122;5.406;2024-02-04T05:46:19;18.69;52.19
85531;SHT35;75970;52.122;5.406;2024-02-04T05:48:50;18.68;52.19
85531;SHT35;75970;52.122;5.406;2024-02-04T05:51:21;18.68;52.20
85531;SHT35;75970;52.122;5.406;2024-02-04T05:53:51;18.68;52.20
85531;SHT35;75970;52.122;5.406;2024-02-04T05:56:22;18.68;52.19
85531;SHT35;75970;52.122;5.406;2024-02-04T05:58:52;18.67;52.20
85531;SHT35;75970;52.122;5.406;2024-02-04T06:01:22;18.67;52.21
85531;SHT35;75970;52.122;5.406;2024-02-04T06:03:52;18.67;52.21
85531;SHT35;75970;52.122;5.406;2024-02-04T06:06:22;18.66;52.23
85531;SHT35;75970;52.122;5.406;2024-02-04T06:08:53;18.66;52.20
85531;SHT35;75970;52.122;5.406;2024-02-04T06:11:23;18.66;52.19
85531;SHT35;75970;52.122;5.406;2024-02-04T06:13:53;18.65;52.22
85531;SHT35;75970;52.122;5.406;2024-02-04T06:16:23;18.65;52.21
85531;SHT35;75970;52.122;5.406;2024-02-04T06:18:53;18.65;52.21
85531;SHT35;75970;52.122;5.406;2024-02-04T06:21:26;18.64;52.20
85531;SHT35;75970;52.122;5.406;2024-02-04T06:23:56;18.63;52.21
85531;SHT35;75970;52.122;5.406;2024-02-04T06:26:26;18.63;52.22
85531;SHT35;75970;52.122;5.406;2024-02-04T06:28:57;18.63;52.23
85531;SHT35;75970;52.122;5.406;2024-02-04T06:31:27;18.63;52.24
85531;SHT35;75970;52.122;5.406;2024-02-04T06:33:57;18.63;52.22
85531;SHT35;75970;52.122;5.406;2024-02-04T06:36:28;18.62;52.27
85531;SHT35;75970;52.122;5.406;2024-02-04T06:38:58;18.63;52.34
85531;SHT35;75970;52.122;5.406;2024-02-04T06:41:28;18.63;52.62
85531;SHT35;75970;52.122;5.406;2024-02-04T06:43:58;18.65;52.88
85531;SHT35;75970;52.122;5.406;2024-02-04T06:46:28;18.68;53.08
85531;SHT35;75970;52.122;5.406;2024-02-04T06:48:58;18.75;53.25
85531;SHT35;75970;52.122;5.406;2024-02-04T06:51:30;18.83;53.27
85531;SHT35;75970;52.122;5.406;2024-02-04T06:54:00;18.94;53.30
85531;SHT35;75970;52.122;5.406;2024-02-04T06:56:31;19.08;53.25
85531;SHT35;75970;52.122;5.406;2024-02-04T06:59:01;19.23;53.15
85531;SHT35;75970;52.122;5.406;2024-02-04T07:01:34;19.40;53.01
85531;SHT35;75970;52.122;5.406;2024-02-04T07:04:04;19.59;52.87
85531;SHT35;75970;52.122;5.406;2024-02-04T07:06:35;19.78;52.68
85531;SHT35;75970;52.122;5.406;2024-02-04T07:09:05;19.98;52.48
85531;SHT35;75970;52.122;5.406;2024-02-04T07:11:35;20.18;52.25
85531;SHT35;75970;52.122;5.406;2024-02-04T07:14:05;20.37;52.02
85531;SHT35;75970;52.122;5.406;2024-02-04T07:16:37;20.56;51.77
85531;SHT35;75970;52.122;5.406;2024-02-04T07:19:07;20.73;51.53
85531;SHT35;75970;52.122;5.406;2024-02-04T07:21:38;20.90;51.32
85531;SHT35;75970;52.122;5.406;2024-02-04T07:24:08;21.04;51.09
85531;SHT35;75970;52.122;5.406;2024-02-04T07:26:38;21.18;50.91
85531;SHT35;75970;52.122;5.406;2024-02-04T07:29:08;21.31;50.67
85531;SHT35;75970;52.122;5.406;2024-02-04T07:31:38;21.43;50.48
85531;SHT35;75970;52.122;5.406;2024-02-04T07:34:08;21.53;50.35
85531;SHT35;75970;52.122;5.406;2024-02-04T07:36:39;21.63;50.18
85531;SHT35;75970;52.122;5.406;2024-02-04T07:39:09;21.72;50.06
85531;SHT35;75970;52.122;5.406;2024-02-04T07:41:40;21.80;49.90
85531;SHT35;75970;52.122;5.406;2024-02-04T07:44:10;21.88;49.78
85531;SHT35;75970;52.122;5.406;2024-02-04T07:46:40;21.95;49.66
85531;SHT35;75970;52.122;5.406;2024-02-04T07:49:10;22.02;49.52
85531;SHT35;75970;52.122;5.406;2024-02-04T07:51:41;22.08;49.43
85531;SHT35;75970;52.122;5.406;2024-02-04T07:54:11;22.13;49.29
85531;SHT35;75970;52.122;5.406;2024-02-04T07:56:41;22.17;49.18
85531;SHT35;75970;52.122;5.406;2024-02-04T07:59:11;22.21;49.11
85531;SHT35;75970;52.122;5.406;2024-02-04T08:01:42;22.25;49.04
85531;SHT35;75970;52.122;5.406;2024-02-04T08:04:12;22.28;48.94
85531;SHT35;75970;52.122;5.406;2024-02-04T08:06:42;22.31;48.89
85531;SHT35;75970;52.122;5.406;2024-02-04T08:09:12;22.34;48.86
85531;SHT35;75970;52.122;5.406;2024-02-04T08:11:43;22.37;48.77
85531;SHT35;75970;52.122;5.406;2024-02-04T08:14:13;22.39;48.75
85531;SHT35;75970;52.122;5.406;2024-02-04T08:16:43;22.41;48.68
85531;SHT35;75970;52.122;5.406;2024-02-04T08:19:16;22.43;48.61
85531;SHT35;75970;52.122;5.406;2024-02-04T08:21:46;22.45;48.56
85531;SHT35;75970;52.122;5.406;2024-02-04T08:24:16;22.46;48.54
85531;SHT35;75970;52.122;5.406;2024-02-04T08:26:46;22.48;48.51
85531;SHT35;75970;52.122;5.406;2024-02-04T08:29:17;22.49;48.51
85531;SHT35;75970;52.122;5.406;2024-02-04T08:31:47;22.50;48.43
85531;SHT35;75970;52.122;5.406;2024-02-04T08:34:17;22.51;48.41
85531;SHT35;75970;52.122;5.406;2024-02-04T08:36:53;22.52;48.42
85531;SHT35;75970;52.122;5.406;2024-02-04T08:39:23;22.53;48.36
85531;SHT35;75970;52.122;5.406;2024-02-04T08:41:54;22.54;48.31
85531;SHT35;75970;52.122;5.406;2024-02-04T08:44:24;22.55;48.34
85531;SHT35;75970;52.122;5.406;2024-02-04T08:47:07;22.55;48.34
85531;SHT35;75970;52.122;5.406;2024-02-04T08:49:39;22.57;48.36
85531;SHT35;75970;52.122;5.406;2024-02-04T08:52:09;22.57;48.38
85531;SHT35;75970;52.122;5.406;2024-02-04T08:54:40;22.58;48.31
85531;SHT35;75970;52.122;5.406;2024-02-04T08:57:10;22.59;48.25
85531;SHT35;75970;52.122;5.406;2024-02-04T08:59:40;22.59;48.25
85531;SHT35;75970;52.122;5.406;2024-02-04T09:02:10;22.60;48.18
85531;SHT35;75970;52.122;5.406;2024-02-04T09:04:41;22.60;48.14
85531;SHT35;75970;52.122;5.406;2024-02-04T09:07:11;22.60;48.09
85531;SHT35;75970;52.122;5.406;2024-02-04T09:09:41;22.60;48.03
85531;SHT35;75970;52.122;5.406;2024-02-04T09:12:11;22.59;48.02
85531;SHT35;75970;52.122;5.406;2024-02-04T09:14:41;22.58;47.96
85531;SHT35;75970;52.122;5.406;2024-02-04T09:17:12;22.57;47.90
85531;SHT35;75970;52.122;5.406;2024-02-04T09:19:42;22.55;47.90
85531;SHT35;75970;52.122;5.406;2024-02-04T09:22:13;22.53;47.87
85531;SHT35;75970;52.122;5.406;2024-02-04T09:24:43;22.50;47.85
85531;SHT35;75970;52.122;5.406;2024-02-04T09:27:13;22.47;47.83
85531;SHT35;75970;52.122;5.406;2024-02-04T09:29:43;22.44;47.85
85531;SHT35;75970;52.122;5.406;2024-02-04T09:32:14;22.40;47.86
85531;SHT35;75970;52.122;5.406;2024-02-04T09:34:47;22.36;47.90
85531;SHT35;75970;52.122;5.406;2024-02-04T09:37:17;22.32;47.91
85531;SHT35;75970;52.122;5.406;2024-02-04T09:39:47;22.29;47.91
85531;SHT35;75970;52.122;5.406;2024-02-04T09:42:22;22.24;47.95
85531;SHT35;75970;52.122;5.406;2024-02-04T09:44:53;22.20;47.97
85531;SHT35;75970;52.122;5.406;2024-02-04T09:47:24;22.16;47.92
85531;SHT35;75970;52.122;5.406;2024-02-04T09:49:54;22.11;47.88
85531;SHT35;75970;52.122;5.406;2024-02-04T09:52:33;22.06;47.99
85531;SHT35;75970;52.122;5.406;2024-02-04T09:55:08;22.01;48.02
85531;SHT35;75970;52.122;5.406;2024-02-04T09:57:39;21.96;48.07
85531;SHT35;75970;52.122;5.406;2024-02-04T10:00:10;21.91;48.14
85531;SHT35;75970;52.122;5.406;2024-02-04T10:02:41;21.86;48.18
85531;SHT35;75970;52.122;5.406;2024-02-04T10:05:12;21.82;48.24
85531;SHT35;75970;52.122;5.406;2024-02-04T10:07:43;21.77;48.28
85531;SHT35;75970;52.122;5.406;2024-02-04T10:10:13;21.73;48.34
85531;SHT35;75970;52.122;5.406;2024-02-04T10:12:43;21.68;48.38
85531;SHT35;75970;52.122;5.406;2024-02-04T10:15:14;21.64;48.46
85531;SHT35;75970;52.122;5.406;2024-02-04T10:17:48;21.60;48.50
85531;SHT35;75970;52.122;5.406;2024-02-04T10:20:18;21.57;48.53
85531;SHT35;75970;52.122;5.406;2024-02-04T10:22:48;21.52;48.59
85531;SHT35;75970;52.122;5.406;2024-02-04T10:25:20;21.49;48.67
85531;SHT35;75970;52.122;5.406;2024-02-04T10:27:51;21.45;48.71
85531;SHT35;75970;52.122;5.406;2024-02-04T10:30:22;21.42;48.75
85531;SHT35;75970;52.122;5.406;2024-02-04T10:32:53;21.39;48.79
85531;SHT35;75970;52.122;5.406;2024-02-04T10:35:24;21.36;48.84
85531;SHT35;75970;52.122;5.406;2024-02-04T10:37:54;21.33;48.94
85531;SHT35;75970;52.122;5.406;2024-02-04T10:40:24;21.30;49.05
85531;SHT35;75970;52.122;5.406;2024-02-04T10:43:02;21.28;49.02
85531;SHT35;75970;52.122;5.406;2024-02-04T10:45:39;21.26;49.14
85531;SHT35;75970;52.122;5.406;2024-02-04T10:48:18;21.25;49.10
85531;SHT35;75970;52.122;5.406;2024-02-04T10:50:51;21.24;49.09
85531;SHT35;75970;52.122;5.406;2024-02-04T10:53:25;21.22;49.14
85531;SHT35;75970;52.122;5.406;2024-02-04T10:56:01;21.20;49.10
85531;SHT35;75970;52.122;5.406;2024-02-04T10:58:33;21.19;49.14
85531;SHT35;75970;52.122;5.406;2024-02-04T11:01:05;21.18;49.25
85531;SHT35;75970;52.122;5.406;2024-02-04T11:03:36;21.17;49.68
85531;SHT35;75970;52.122;5.406;2024-02-04T11:06:08;21.16;49.81
85531;SHT35;75970;52.122;5.406;2024-02-04T11:08:41;21.16;49.89
85531;SHT35;75970;52.122;5.406;2024-02-04T11:11:12;21.16;50.00
85531;SHT35;75970;52.122;5.406;2024-02-04T11:13:45;21.17;50.06
85531;SHT35;75970;52.122;5.406;2024-02-04T11:20:10;21.18;50.11
85531;SHT35;75970;52.122;5.406;2024-02-04T11:25:49;21.20;50.19
85531;SHT35;75970;52.122;5.406;2024-02-04T11:28:23;21.20;50.09
85531;SHT35;75970;52.122;5.406;2024-02-04T11:30:55;21.20;50.01
85531;SHT35;75970;52.122;5.406;2024-02-04T11:33:28;21.20;50.01
85531;SHT35;75970;52.122;5.406;2024-02-04T11:36:03;21.18;49.98
85531;SHT35;75970;52.122;5.406;2024-02-04T11:38:38;21.17;50.07
85531;SHT35;75970;52.122;5.406;2024-02-04T11:41:08;21.17;50.22
85531;SHT35;75970;52.122;5.406;2024-02-04T11:43:39;21.16;50.27
85531;SHT35;75970;52.122;5.406;2024-02-04T11:46:16;21.16;50.28
85531;SHT35;75970;52.122;5.406;2024-02-04T11:48:53;21.16;50.24
85531;SHT35;75970;52.122;5.406;2024-02-04T11:51:25;21.17;50.18
85531;SHT35;75970;52.122;5.406;2024-02-04T11:53:56;21.17;50.20
85531;SHT35;75970;52.122;5.406;2024-02-04T11:56:27;21.16;50.15
85531;SHT35;75970;52.122;5.406;2024-02-04T11:58:59;21.16;50.15
85531;SHT35;75970;52.122;5.406;2024-02-04T12:01:31;21.15;50.24
85531;SHT35;75970;52.122;5.406;2024-02-04T12:04:11;21.15;50.28
85531;SHT35;75970;52.122;5.406;2024-02-04T12:06:42;21.14;50.28
85531;SHT35;75970;52.122;5.406;2024-02-04T12:09:17;21.14;50.26
85531;SHT35;75970;52.122;5.406;2024-02-04T12:11:48;21.14;50.30
85531;SHT35;75970;52.122;5.406;2024-02-04T12:14:18;21.14;50.32
85531;SHT35;75970;52.122;5.406;2024-02-04T12:16:49;21.14;50.33
85531;SHT35;75970;52.122;5.406;2024-02-04T12:19:19;21.15;50.50
85531;SHT35;75970;52.122;5.406;2024-02-04T12:21:50;21.15;50.74
85531;SHT35;75970;52.122;5.406;2024-02-04T12:24:20;21.16;50.94
85531;SHT35;75970;52.122;5.406;2024-02-04T12:26:51;21.16;51.06
85531;SHT35;75970;52.122;5.406;2024-02-04T12:29:21;21.17;51.16
85531;SHT35;75970;52.122;5.406;2024-02-04T12:31:58;21.17;51.32
85531;SHT35;75970;52.122;5.406;2024-02-04T12:34:29;21.18;51.43
85531;SHT35;75970;52.122;5.406;2024-02-04T12:37:01;21.18;51.50
85531;SHT35;75970;52.122;5.406;2024-02-04T12:39:32;21.19;51.59
85531;SHT35;75970;52.122;5.406;2024-02-04T12:42:02;21.20;51.68
85531;SHT35;75970;52.122;5.406;2024-02-04T12:44:33;21.20;51.78
85531;SHT35;75970;52.122;5.406;2024-02-04T12:47:04;21.20;51.82
85531;SHT35;75970;52.122;5.406;2024-02-04T12:49:34;21.21;51.90
85531;SHT35;75970;52.122;5.406;2024-02-04T12:52:06;21.21;51.96
85531;SHT35;75970;52.122;5.406;2024-02-04T12:54:44;21.21;52.01
85531;SHT35;75970;52.122;5.406;2024-02-04T12:57:24;21.21;52.05
85531;SHT35;75970;52.122;5.406;2024-02-04T13:00:04;21.21;52.70
85531;SHT35;75970;52.122;5.406;2024-02-04T13:02:38;21.22;52.96
85531;SHT35;75970;52.122;5.406;2024-02-04T13:05:08;21.23;53.02
85531;SHT35;75970;52.122;5.406;2024-02-04T13:07:39;21.24;53.13
85531;SHT35;75970;52.122;5.406;2024-02-04T13:10:13;21.25;53.17
85531;SHT35;75970;52.122;5.406;2024-02-04T13:12:43;21.26;53.18
85531;SHT35;75970;52.122;5.406;2024-02-04T13:15:14;21.28;53.22
85531;SHT35;75970;52.122;5.406;2024-02-04T13:17:44;21.30;53.28
85531;SHT35;75970;52.122;5.406;2024-02-04T13:20:14;21.31;53.30
85531;SHT35;75970;52.122;5.406;2024-02-04T13:22:44;21.33;53.32
85531;SHT35;75970;52.122;5.406;2024-02-04T13:25:15;21.35;53.33
85531;SHT35;75970;52.122;5.406;2024-02-04T13:27:46;21.38;53.37
85531;SHT35;75970;52.122;5.406;2024-02-04T13:30:17;21.40;53.36
85531;SHT35;75970;52.122;5.406;2024-02-04T13:32:48;21.42;53.46
85531;SHT35;75970;52.122;5.406;2024-02-04T13:35:19;21.45;53.56
85531;SHT35;75970;52.122;5.406;2024-02-04T13:37:50;21.47;53.63
85531;SHT35;75970;52.122;5.406;2024-02-04T13:40:22;21.49;53.75
85531;SHT35;75970;52.122;5.406;2024-02-04T13:42:53;21.51;53.76
85531;SHT35;75970;52.122;5.406;2024-02-04T13:45:24;21.54;53.83
85531;SHT35;75970;52.122;5.406;2024-02-04T13:47:54;21.56;53.88
85531;SHT35;75970;52.122;5.406;2024-02-04T13:50:24;21.58;53.93
85531;SHT35;75970;52.122;5.406;2024-02-04T13:52:54;21.60;53.93
85531;SHT35;75970;52.122;5.406;2024-02-04T13:55:26;21.63;53.95
85531;SHT35;75970;52.122;5.406;2024-02-04T13:57:56;21.65;53.99
85531;SHT35;75970;52.122;5.406;2024-02-04T14:00:26;21.67;53.99
85531;SHT35;75970;52.122;5.406;2024-02-04T14:02:56;21.68;54.01
85531;SHT35;75970;52.122;5.406;2024-02-04T14:05:27;21.70;54.00
85531;SHT35;75970;52.122;5.406;2024-02-04T14:07:57;21.71;54.02
85531;SHT35;75970;52.122;5.406;2024-02-04T14:10:27;21.73;54.04
85531;SHT35;75970;52.122;5.406;2024-02-04T14:12:58;21.74;54.10
85531;SHT35;75970;52.122;5.406;2024-02-04T14:15:28;21.74;54.12
85531;SHT35;75970;52.122;5.406;2024-02-04T14:18:00;21.75;54.11
85531;SHT35;75970;52.122;5.406;2024-02-04T14:20:30;21.76;54.13
85531;SHT35;75970;52.122;5.406;2024-02-04T14:23:01;21.76;54.16
85531;SHT35;75970;52.122;5.406;2024-02-04T14:25:31;21.77;54.18
85531;SHT35;75970;52.122;5.406;2024-02-04T14:28:02;21.77;54.15
85531;SHT35;75970;52.122;5.406;2024-02-04T14:30:33;21.78;54.18
85531;SHT35;75970;52.122;5.406;2024-02-04T14:33:03;21.79;54.21
85531;SHT35;75970;52.122;5.406;2024-02-04T14:35:34;21.79;54.20
85531;SHT35;75970;52.122;5.406;2024-02-04T14:38:04;21.80;54.25
85531;SHT35;75970;52.122;5.406;2024-02-04T14:40:34;21.80;54.29
85531;SHT35;75970;52.122;5.406;2024-02-04T14:43:04;21.80;54.25
85531;SHT35;75970;52.122;5.406;2024-02-04T14:45:35;21.80;54.26
85531;SHT35;75970;52.122;5.406;2024-02-04T14:48:05;21.80;54.27
85531;SHT35;75970;52.122;5.406;2024-02-04T14:50:36;21.80;54.30
85531;SHT35;75970;52.122;5.406;2024-02-04T14:53:07;21.81;54.35
85531;SHT35;75970;52.122;5.406;2024-02-04T14:55:37;21.82;54.38
85531;SHT35;75970;52.122;5.406;2024-02-04T14:58:07;21.82;54.39
85531;SHT35;75970;52.122;5.406;2024-02-04T15:00:38;21.83;54.40
85531;SHT35;75970;52.122;5.406;2024-02-04T15:03:09;21.83;54.43
85531;SHT35;75970;52.122;5.406;2024-02-04T15:05:41;21.84;54.43
85531;SHT35;75970;52.122;5.406;2024-02-04T15:08:11;21.84;54.42
85531;SHT35;75970;52.122;5.406;2024-02-04T15:10:41;21.84;54.40
85531;SHT35;75970;52.122;5.406;2024-02-04T15:13:11;21.84;54.42
85531;SHT35;75970;52.122;5.406;2024-02-04T15:15:42;21.84;54.44
85531;SHT35;75970;52.122;5.406;2024-02-04T15:18:12;21.84;54.46
85531;SHT35;75970;52.122;5.406;2024-02-04T15:20:43;21.84;54.46
85531;SHT35;75970;52.122;5.406;2024-02-04T15:23:13;21.83;54.47
85531;SHT35;75970;52.122;5.406;2024-02-04T15:25:44;21.83;54.50
85531;SHT35;75970;52.122;5.406;2024-02-04T15:28:15;21.82;54.49
85531;SHT35;75970;52.122;5.406;2024-02-04T15:30:46;21.82;54.51
85531;SHT35;75970;52.122;5.406;2024-02-04T15:33:16;21.82;54.50
85531;SHT35;75970;52.122;5.406;2024-02-04T15:35:47;21.80;54.54
85531;SHT35;75970;52.122;5.406;2024-02-04T15:38:17;21.80;54.54
85531;SHT35;75970;52.122;5.406;2024-02-04T15:40:48;21.80;54.54
85531;SHT35;75970;52.122;5.406;2024-02-04T15:43:18;21.79;54.52
85531;SHT35;75970;52.122;5.406;2024-02-04T15:45:50;21.78;54.54
85531;SHT35;75970;52.122;5.406;2024-02-04T15:48:25;21.77;54.58
85531;SHT35;75970;52.122;5.406;2024-02-04T15:50:59;21.77;54.57
85531;SHT35;75970;52.122;5.406;2024-02-04T15:53:30;21.76;54.56
85531;SHT35;75970;52.122;5.406;2024-02-04T15:56:05;21.76;54.53
85531;SHT35;75970;52.122;5.406;2024-02-04T15:58:37;21.75;54.56
85531;SHT35;75970;52.122;5.406;2024-02-04T16:01:14;21.74;54.59
85531;SHT35;75970;52.122;5.406;2024-02-04T16:03:45;21.74;54.58
85531;SHT35;75970;52.122;5.406;2024-02-04T16:06:15;21.74;54.54